sensor_id;sensor_type;location;lat;lon;timestamp;temperature;humidity
71367;DHT22;60030;52.274;8.040;2023-05-07T00:00:57;14.20;99.90
71367;DHT22;60030;52.274;8.040;2023-05-07T00:03:25;14.20;99.90
71367;DHT22;60030;52.274;8.040;2023-05-07T00:05:53;14.20;99.90
71367;DHT22;60030;52.274;8.040;2023-05-07T00:08:20;14.20;99.90
71367;DHT22;60030;52.274;8.040;2023-05-07T00:10:49;14.20;99.90
71367;DHT22;60030;52.274;8.040;2023-05-07T00:13:16;14.30;99.90
71367;DHT22;60030;52.274;8.040;2023-05-07T00:15:43;14.20;99.90
71367;DHT22;60030;52.274;8.040;2023-05-07T00:18:11;14.10;99.90
71367;DHT22;60030;52.274;8.040;2023-05-07T00:20:39;14.10;99.90
71367;DHT22;60030;52.274;8.040;2023-05-07T00:23:07;14.00;99.90
71367;DHT22;60030;52.274;8.040;2023-05-07T00:25:34;14.20;99.90
71367;DHT22;60030;52.274;8.040;2023-05-07T00:28:03;14.10;99.90
71367;DHT22;60030;52.274;8.040;2023-05-07T00:30:30;14.10;99.90
71367;DHT22;60030;52.274;8.040;2023-05-07T00:33:00;14.10;99.90
71367;DHT22;60030;52.274;8.040;2023-05-07T00:35:28;13.90;99.90
71367;DHT22;60030;52.274;8.040;2023-05-07T00:37:56;14.00;99.90
71367;DHT22;60030;52.274;8.040;2023-05-07T00:40:23;13.90;99.90
71367;DHT22;60030;52.274;8.040;2023-05-07T00:42:51;13.70;99.90
71367;DHT22;60030;52.274;8.040;2023-05-07T00:45:26;13.70;99.90
71367;DHT22;60030;52.274;8.040;2023-05-07T00:47:54;13.70;99.90
71367;DHT22;60030;52.274;8.040;2023-05-07T00:50:22;13.80;99.90
71367;DHT22;60030;52.274;8.040;2023-05-07T00:52:50;13.70;99.90
71367;DHT22;60030;52.274;8.040;2023-05-07T00:55:17;13.80;99.90
71367;DHT22;60030;52.274;8.040;2023-05-07T00:57:45;13.70;99.90
71367;DHT22;60030;52.274;8.040;2023-05-07T01:00:13;13.60;99.90
71367;DHT22;60030;52.274;8.040;2023-05-07T01:02:42;13.80;99.90
71367;DHT22;60030;52.274;8.040;2023-05-07T01:05:12;13.80;99.90
71367;DHT22;60030;52.274;8.040;2023-05-07T01:07:41;13.70;99.90
71367;DHT22;60030;52.274;8.040;2023-05-07T01:10:09;13.70;99.90
71367;DHT22;60030;52.274;8.040;2023-05-07T01:12:38;13.60;99.90
71367;DHT22;60030;52.274;8.040;2023-05-07T01:15:08;13.80;99.90
71367;DHT22;60030;52.274;8.040;2023-05-07T01:17:37;13.70;99.90
71367;DHT22;60030;52.274;8.040;2023-05-07T01:20:09;13.80;99.90
71367;DHT22;60030;52.274;8.040;2023-05-07T01:22:39;13.70;99.90
71367;DHT22;60030;52.274;8.040;2023-05-07T01:25:08;13.60;99.90
71367;DHT22;60030;52.274;8.040;2023-05-07T01:27:39;13.70;99.90
71367;DHT22;60030;52.274;8.040;2023-05-07T01:30:08;13.60;99.90
71367;DHT22;60030;52.274;8.040;2023-05-07T01:32:38;13.60;99.90
71367;DHT22;60030;52.274;8.040;2023-05-07T01:35:10;13.50;99.90
71367;DHT22;60030;52.274;8.040;2023-05-07T01:37:40;13.40;99.90
71367;DHT22;60030;52.274;8.040;2023-05-07T01:40:08;13.40;99.90
71367;DHT22;60030;52.274;8.040;2023-05-07T01:42:39;13.40;99.90
71367;DHT22;60030;52.274;8.040;2023-05-07T01:45:07;13.30;99.90
71367;DHT22;60030;52.274;8.040;2023-05-07T01:47:36;13.40;99.90
71367;DHT22;60030;52.274;8.040;2023-05-07T01:50:05;13.30;99.90
71367;DHT22;60030;52.274;8.040;2023-05-07T01:52:34;13.40;99.90
71367;DHT22;60030;52.274;8.040;2023-05-07T01:55:04;13.30;99.90
71367;DHT22;60030;52.274;8.040;2023-05-07T01:57:32;13.30;99.90
71367;DHT22;60030;52.274;8.040;2023-05-07T02:00:00;13.40;99.90
71367;DHT22;60030;52.274;8.040;2023-05-07T02:02:29;13.50;99.90
71367;DHT22;60030;52.274;8.040;2023-05-07T02:04:59;13.50;99.90
71367;DHT22;60030;52.274;8.040;2023-05-07T02:07:26;13.50;99.90
71367;DHT22;60030;52.274;8.040;2023-05-07T02:09:54;13.50;99.90
71367;DHT22;60030;52.274;8.040;2023-05-07T02:12:23;13.50;99.90
71367;DHT22;60030;52.274;8.040;2023-05-07T02:14:50;13.40;99.90
71367;DHT22;60030;52.274;8.040;2023-05-07T02:17:18;13.30;99.90
71367;DHT22;60030;52.274;8.040;2023-05-07T02:19:46;13.40;99.90
71367;DHT22;60030;52.274;8.040;2023-05-07T02:22:13;13.30;99.90
71367;DHT22;60030;52.274;8.040;2023-05-07T02:24:41;13.20;99.90
71367;DHT22;60030;52.274;8.040;2023-05-07T02:27:08;13.20;99.90
71367;DHT22;60030;52.274;8.040;2023-05-07T02:29:37;13.30;99.90
71367;DHT22;60030;52.274;8.040;2023-05-07T02:32:05;13.20;99.90
71367;DHT22;60030;52.274;8.040;2023-05-07T02:34:32;13.20;99.90
71367;DHT22;60030;52.274;8.040;2023-05-07T02:36:59;13.20;99.90
71367;DHT22;60030;52.274;8.040;2023-05-07T02:39:27;13.20;99.90
71367;DHT22;60030;52.274;8.040;2023-05-07T02:41:54;13.00;99.90
71367;DHT22;60030;52.274;8.040;2023-05-07T02:44:22;13.00;99.90
71367;DHT22;60030;52.274;8.040;2023-05-07T02:46:52;13.10;99.90
71367;DHT22;60030;52.274;8.040;2023-05-07T02:49:19;13.10;99.90
71367;DHT22;60030;52.274;8.040;2023-05-07T02:51:47;13.00;99.90
71367;DHT22;60030;52.274;8.040;2023-05-07T02:54:20;13.10;99.90
71367;DHT22;60030;52.274;8.040;2023-05-07T02:56:47;13.10;99.90
71367;DHT22;60030;52.274;8.040;2023-05-07T02:59:15;13.20;99.90
71367;DHT22;60030;52.274;8.040;2023-05-07T03:01:42;13.00;99.90
71367;DHT22;60030;52.274;8.040;2023-05-07T03:04:13;13.00;99.90
71367;DHT22;60030;52.274;8.040;2023-05-07T03:06:41;13.10;99.90
71367;DHT22;60030;52.274;8.040;2023-05-07T03:09:08;13.00;99.90
71367;DHT22;60030;52.274;8.040;2023-05-07T03:11:36;13.00;99.90
71367;DHT22;60030;52.274;8.040;2023-05-07T03:14:04;12.90;99.90
71367;DHT22;60030;52.274;8.040;2023-05-07T03:16:32;12.80;99.90
71367;DHT22;60030;52.274;8.040;2023-05-07T03:19:00;13.00;99.90
71367;DHT22;60030;52.274;8.040;2023-05-07T03:21:30;13.00;99.90
71367;DHT22;60030;52.274;8.040;2023-05-07T03:23:59;13.00;99.90
71367;DHT22;60030;52.274;8.040;2023-05-07T03:26:27;12.90;99.90
71367;DHT22;60030;52.274;8.040;2023-05-07T03:28:54;12.80;99.90
71367;DHT22;60030;52.274;8.040;2023-05-07T03:31:22;12.70;99.90
71367;DHT22;60030;52.274;8.040;2023-05-07T03:33:51;12.70;99.90
71367;DHT22;60030;52.274;8.040;2023-05-07T03:36:18;12.70;99.90
71367;DHT22;60030;52.274;8.040;2023-05-07T03:38:48;12.90;99.90
71367;DHT22;60030;52.274;8.040;2023-05-07T03:41:19;13.00;99.90
71367;DHT22;60030;52.274;8.040;2023-05-07T03:43:46;13.10;99.90
71367;DHT22;60030;52.274;8.040;2023-05-07T03:46:14;13.00;99.90
71367;DHT22;60030;52.274;8.040;2023-05-07T03:48:42;13.00;99.90
71367;DHT22;60030;52.274;8.040;2023-05-07T03:51:11;12.90;99.90
71367;DHT22;60030;52.274;8.040;2023-05-07T03:53:38;12.80;99.90
71367;DHT22;60030;52.274;8.040;2023-05-07T03:56:08;12.80;99.90
71367;DHT22;60030;52.274;8.040;2023-05-07T03:58:38;12.90;99.90
71367;DHT22;60030;52.274;8.040;2023-05-07T04:01:08;12.70;99.90
71367;DHT22;60030;52.274;8.040;2023-05-07T04:03:35;12.90;99.90
71367;DHT22;60030;52.274;8.040;2023-05-07T04:06:04;12.90;99.90
71367;DHT22;60030;52.274;8.040;2023-05-07T04:08:34;12.80;99.90
71367;DHT22;60030;52.274;8.040;2023-05-07T04:11:03;12.80;99.90
71367;DHT22;60030;52.274;8.040;2023-05-07T04:13:36;12.80;99.90
71367;DHT22;60030;52.274;8.040;2023-05-07T04:16:06;12.70;99.90
71367;DHT22;60030;52.274;8.040;2023-05-07T04:18:35;12.80;99.90
71367;DHT22;60030;52.274;8.040;2023-05-07T04:21:04;12.80;99.90
71367;DHT22;60030;52.274;8.040;2023-05-07T04:23:32;12.90;99.90
71367;DHT22;60030;52.274;8.040;2023-05-07T04:26:02;12.80;99.90
71367;DHT22;60030;52.274;8.040;2023-05-07T04:28:39;12.90;99.90
71367;DHT22;60030;52.274;8.040;2023-05-07T04:31:07;12.90;99.90
71367;DHT22;60030;52.274;8.040;2023-05-07T04:33:36;13.00;99.90
71367;DHT22;60030;52.274;8.040;2023-05-07T04:36:06;12.90;99.90
71367;DHT22;60030;52.274;8.040;2023-05-07T04:38:38;12.80;99.90
71367;DHT22;60030;52.274;8.040;2023-05-07T04:41:08;12.90;99.90
71367;DHT22;60030;52.274;8.040;2023-05-07T04:43:40;12.90;99.90
71367;DHT22;60030;52.274;8.040;2023-05-07T04:46:10;13.00;99.90
71367;DHT22;60030;52.274;8.040;2023-05-07T04:48:38;13.10;99.90
71367;DHT22;60030;52.274;8.040;2023-05-07T04:51:06;12.90;99.90
71367;DHT22;60030;52.274;8.040;2023-05-07T04:53:33;12.80;99.90
71367;DHT22;60030;52.274;8.040;2023-05-07T04:56:01;12.60;99.90
71367;DHT22;60030;52.274;8.040;2023-05-07T04:58:40;12.70;99.90
71367;DHT22;60030;52.274;8.040;2023-05-07T05:01:08;12.70;99.90
71367;DHT22;60030;52.274;8.040;2023-05-07T05:03:36;12.60;99.90
71367;DHT22;60030;52.274;8.040;2023-05-07T05:06:05;12.80;99.90
71367;DHT22;60030;52.274;8.040;2023-05-07T05:08:35;12.70;99.90
71367;DHT22;60030;52.274;8.040;2023-05-07T05:11:04;12.90;99.90
71367;DHT22;60030;52.274;8.040;2023-05-07T05:13:33;13.00;99.90
71367;DHT22;60030;52.274;8.040;2023-05-07T05:16:08;12.80;99.90
71367;DHT22;60030;52.274;8.040;2023-05-07T05:18:37;12.80;99.90
71367;DHT22;60030;52.274;8.040;2023-05-07T05:21:04;12.90;99.90
71367;DHT22;60030;52.274;8.040;2023-05-07T05:23:32;13.00;99.90
71367;DHT22;60030;52.274;8.040;2023-05-07T05:26:00;13.10;99.90
71367;DHT22;60030;52.274;8.040;2023-05-07T05:28:31;13.20;99.90
71367;DHT22;60030;52.274;8.040;2023-05-07T05:30:58;13.30;99.90
71367;DHT22;60030;52.274;8.040;2023-05-07T05:33:30;13.40;99.90
71367;DHT22;60030;52.274;8.040;2023-05-07T05:36:02;13.50;99.90
71367;DHT22;60030;52.274;8.040;2023-05-07T05:38:30;13.50;99.90
71367;DHT22;60030;52.274;8.040;2023-05-07T05:40:58;13.60;99.90
71367;DHT22;60030;52.274;8.040;2023-05-07T05:43:26;13.40;99.90
71367;DHT22;60030;52.274;8.040;2023-05-07T05:45:55;13.50;99.90
71367;DHT22;60030;52.274;8.040;2023-05-07T05:48:22;13.50;99.90
71367;DHT22;60030;52.274;8.040;2023-05-07T05:50:51;13.50;99.90
71367;DHT22;60030;52.274;8.040;2023-05-07T05:53:19;13.70;99.90
71367;DHT22;60030;52.274;8.040;2023-05-07T05:55:46;13.80;99.90
71367;DHT22;60030;52.274;8.040;2023-05-07T05:58:14;14.00;99.90
71367;DHT22;60030;52.274;8.040;2023-05-07T06:00:48;14.00;99.90
71367;DHT22;60030;52.274;8.040;2023-05-07T06:03:18;13.70;99.90
71367;DHT22;60030;52.274;8.040;2023-05-07T06:05:46;13.80;99.90
71367;DHT22;60030;52.274;8.040;2023-05-07T06:08:15;14.10;99.90
71367;DHT22;60030;52.274;8.040;2023-05-07T06:10:43;14.00;99.90
71367;DHT22;60030;52.274;8.040;2023-05-07T06:13:10;14.00;99.90
71367;DHT22;60030;52.274;8.040;2023-05-07T06:15:39;14.00;99.90
71367;DHT22;60030;52.274;8.040;2023-05-07T06:18:09;14.20;99.90
71367;DHT22;60030;52.274;8.040;2023-05-07T06:20:37;14.10;99.90
71367;DHT22;60030;52.274;8.040;2023-05-07T06:23:09;14.10;99.90
71367;DHT22;60030;52.274;8.040;2023-05-07T06:25:38;14.20;99.90
71367;DHT22;60030;52.274;8.040;2023-05-07T06:28:06;14.20;99.90
71367;DHT22;60030;52.274;8.040;2023-05-07T06:30:37;14.40;99.90
71367;DHT22;60030;52.274;8.040;2023-05-07T06:33:04;14.50;99.90
71367;DHT22;60030;52.274;8.040;2023-05-07T06:35:31;14.60;99.90
71367;DHT22;60030;52.274;8.040;2023-05-07T06:38:00;14.70;99.90
71367;DHT22;60030;52.274;8.040;2023-05-07T06:40:29;14.90;99.90
71367;DHT22;60030;52.274;8.040;2023-05-07T06:43:00;14.90;99.90
71367;DHT22;60030;52.274;8.040;2023-05-07T06:45:41;14.90;99.90
71367;DHT22;60030;52.274;8.040;2023-05-07T06:48:10;15.10;99.90
71367;DHT22;60030;52.274;8.040;2023-05-07T06:50:48;15.10;99.90
71367;DHT22;60030;52.274;8.040;2023-05-07T06:53:15;14.90;99.90
71367;DHT22;60030;52.274;8.040;2023-05-07T06:55:43;14.90;99.90
71367;DHT22;60030;52.274;8.040;2023-05-07T06:58:13;14.90;99.90
71367;DHT22;60030;52.274;8.040;2023-05-07T07:00:41;14.90;99.90
71367;DHT22;60030;52.274;8.040;2023-05-07T07:03:08;14.80;99.90
71367;DHT22;60030;52.274;8.040;2023-05-07T07:05:36;14.90;99.90
71367;DHT22;60030;52.274;8.040;2023-05-07T07:08:04;14.90;99.90
71367;DHT22;60030;52.274;8.040;2023-05-07T07:10:32;14.90;99.90
71367;DHT22;60030;52.274;8.040;2023-05-07T07:13:00;15.00;99.90
71367;DHT22;60030;52.274;8.040;2023-05-07T07:15:28;15.30;99.90
71367;DHT22;60030;52.274;8.040;2023-05-07T07:18:02;15.30;99.90
71367;DHT22;60030;52.274;8.040;2023-05-07T07:20:30;15.50;99.90
71367;DHT22;60030;52.274;8.040;2023-05-07T07:22:58;15.60;99.90
71367;DHT22;60030;52.274;8.040;2023-05-07T07:25:26;15.70;99.90
71367;DHT22;60030;52.274;8.040;2023-05-07T07:27:54;15.90;99.90
71367;DHT22;60030;52.274;8.040;2023-05-07T07:30:23;16.00;99.90
71367;DHT22;60030;52.274;8.040;2023-05-07T07:32:52;15.90;99.90
71367;DHT22;60030;52.274;8.040;2023-05-07T07:35:20;16.00;99.90
71367;DHT22;60030;52.274;8.040;2023-05-07T07:37:49;15.70;99.90
71367;DHT22;60030;52.274;8.040;2023-05-07T07:40:16;15.70;99.90
71367;DHT22;60030;52.274;8.040;2023-05-07T07:42:45;15.60;99.90
71367;DHT22;60030;52.274;8.040;2023-05-07T07:45:12;15.60;99.90
71367;DHT22;60030;52.274;8.040;2023-05-07T07:47:44;15.80;99.90
71367;DHT22;60030;52.274;8.040;2023-05-07T07:50:13;15.90;99.90
71367;DHT22;60030;52.274;8.040;2023-05-07T07:52:41;16.00;99.90
71367;DHT22;60030;52.274;8.040;2023-05-07T07:55:10;16.00;99.90
71367;DHT22;60030;52.274;8.040;2023-05-07T07:57:38;16.10;99.90
71367;DHT22;60030;52.274;8.040;2023-05-07T08:00:07;15.90;99.90
71367;DHT22;60030;52.274;8.040;2023-05-07T08:02:42;16.00;99.90
71367;DHT22;60030;52.274;8.040;2023-05-07T08:05:16;16.10;99.90
71367;DHT22;60030;52.274;8.040;2023-05-07T08:07:44;16.00;99.90
71367;DHT22;60030;52.274;8.040;2023-05-07T08:10:13;16.00;99.90
71367;DHT22;60030;52.274;8.040;2023-05-07T08:12:47;16.00;99.90
71367;DHT22;60030;52.274;8.040;2023-05-07T08:15:15;16.10;99.90
71367;DHT22;60030;52.274;8.040;2023-05-07T08:17:43;16.10;99.90
71367;DHT22;60030;52.274;8.040;2023-05-07T08:20:10;16.20;99.90
71367;DHT22;60030;52.274;8.040;2023-05-07T08:22:40;16.30;99.90
71367;DHT22;60030;52.274;8.040;2023-05-07T08:25:08;16.40;99.90
71367;DHT22;60030;52.274;8.040;2023-05-07T08:27:36;16.30;99.90
71367;DHT22;60030;52.274;8.040;2023-05-07T08:30:04;16.40;99.90
71367;DHT22;60030;52.274;8.040;2023-05-07T08:32:32;16.50;99.90
71367;DHT22;60030;52.274;8.040;2023-05-07T08:35:00;16.70;99.90
71367;DHT22;60030;52.274;8.040;2023-05-07T08:37:27;16.80;99.90
71367;DHT22;60030;52.274;8.040;2023-05-07T08:39:56;17.10;99.90
71367;DHT22;60030;52.274;8.040;2023-05-07T08:42:28;17.00;99.90
71367;DHT22;60030;52.274;8.040;2023-05-07T08:44:57;16.90;99.90
71367;DHT22;60030;52.274;8.040;2023-05-07T08:47:34;17.00;99.90
71367;DHT22;60030;52.274;8.040;2023-05-07T08:50:03;16.90;99.90
71367;DHT22;60030;52.274;8.040;2023-05-07T08:52:32;17.00;99.90
71367;DHT22;60030;52.274;8.040;2023-05-07T08:55:02;17.00;99.90
71367;DHT22;60030;52.274;8.040;2023-05-07T08:57:30;17.20;99.90
71367;DHT22;60030;52.274;8.040;2023-05-07T08:59:58;17.10;99.90
71367;DHT22;60030;52.274;8.040;2023-05-07T09:02:26;17.20;99.90
71367;DHT22;60030;52.274;8.040;2023-05-07T09:04:54;17.30;99.90
71367;DHT22;60030;52.274;8.040;2023-05-07T09:07:22;17.40;99.90
71367;DHT22;60030;52.274;8.040;2023-05-07T09:09:50;17.50;99.90
71367;DHT22;60030;52.274;8.040;2023-05-07T09:12:21;17.60;99.90
71367;DHT22;60030;52.274;8.040;2023-05-07T09:14:49;17.80;99.90
71367;DHT22;60030;52.274;8.040;2023-05-07T09:17:17;18.00;99.90
71367;DHT22;60030;52.274;8.040;2023-05-07T09:19:45;18.00;99.90
71367;DHT22;60030;52.274;8.040;2023-05-07T09:22:15;18.10;99.90
71367;DHT22;60030;52.274;8.040;2023-05-07T09:24:58;18.00;99.90
71367;DHT22;60030;52.274;8.040;2023-05-07T09:27:29;18.00;99.90
71367;DHT22;60030;52.274;8.040;2023-05-07T09:29:58;18.10;99.90
71367;DHT22;60030;52.274;8.040;2023-05-07T09:32:26;18.40;99.90
71367;DHT22;60030;52.274;8.040;2023-05-07T09:34:54;18.50;99.90
71367;DHT22;60030;52.274;8.040;2023-05-07T09:37:26;18.60;99.90
71367;DHT22;60030;52.274;8.040;2023-05-07T09:39:54;18.70;99.90
71367;DHT22;60030;52.274;8.040;2023-05-07T09:42:24;18.80;99.90
71367;DHT22;60030;52.274;8.040;2023-05-07T09:44:55;18.60;99.90
71367;DHT22;60030;52.274;8.040;2023-05-07T09:47:28;18.60;99.90
71367;DHT22;60030;52.274;8.040;2023-05-07T09:49:59;18.30;99.90
71367;DHT22;60030;52.274;8.040;2023-05-07T09:52:30;18.30;99.90
71367;DHT22;60030;52.274;8.040;2023-05-07T09:55:02;18.20;99.90
71367;DHT22;60030;52.274;8.040;2023-05-07T09:57:32;18.40;99.90
71367;DHT22;60030;52.274;8.040;2023-05-07T10:00:07;18.60;99.90
71367;DHT22;60030;52.274;8.040;2023-05-07T10:02:47;18.90;99.90
71367;DHT22;60030;52.274;8.040;2023-05-07T10:05:19;19.20;99.90
71367;DHT22;60030;52.274;8.040;2023-05-07T10:07:48;19.30;99.90
71367;DHT22;60030;52.274;8.040;2023-05-07T10:10:17;19.20;99.90
71367;DHT22;60030;52.274;8.040;2023-05-07T10:12:46;19.30;99.90
71367;DHT22;60030;52.274;8.040;2023-05-07T10:15:22;19.60;99.90
71367;DHT22;60030;52.274;8.040;2023-05-07T10:17:53;19.70;99.90
71367;DHT22;60030;52.274;8.040;2023-05-07T10:20:22;19.80;99.90
71367;DHT22;60030;52.274;8.040;2023-05-07T10:22:51;20.10;99.90
71367;DHT22;60030;52.274;8.040;2023-05-07T10:25:29;20.10;99.90
71367;DHT22;60030;52.274;8.040;2023-05-07T10:28:05;20.20;99.90
71367;DHT22;60030;52.274;8.040;2023-05-07T10:30:42;20.20;99.90
71367;DHT22;60030;52.274;8.040;2023-05-07T10:33:17;20.40;99.90
71367;DHT22;60030;52.274;8.040;2023-05-07T10:35:48;20.10;99.90
71367;DHT22;60030;52.274;8.040;2023-05-07T10:38:16;20.20;99.90
71367;DHT22;60030;52.274;8.040;2023-05-07T10:40:45;20.30;99.90
71367;DHT22;60030;52.274;8.040;2023-05-07T10:43:13;20.10;99.90
71367;DHT22;60030;52.274;8.040;2023-05-07T10:46:15;20.20;99.90
71367;DHT22;60030;52.274;8.040;2023-05-07T10:49:08;20.40;99.90
71367;DHT22;60030;52.274;8.040;2023-05-07T10:51:45;20.30;99.90
71367;DHT22;60030;52.274;8.040;2023-05-07T10:54:33;20.70;99.90
71367;DHT22;60030;52.274;8.040;2023-05-07T10:57:33;20.70;99.90
71367;DHT22;60030;52.274;8.040;2023-05-07T11:00:42;20.70;99.90
71367;DHT22;60030;52.274;8.040;2023-05-07T11:03:19;21.10;99.90
71367;DHT22;60030;52.274;8.040;2023-05-07T11:06:10;21.00;99.90
71367;DHT22;60030;52.274;8.040;2023-05-07T11:08:53;21.10;99.90
71367;DHT22;60030;52.274;8.040;2023-05-07T11:11:55;21.30;99.90
71367;DHT22;60030;52.274;8.040;2023-05-07T11:14:44;21.40;99.90
71367;DHT22;60030;52.274;8.040;2023-05-07T11:17:17;21.10;99.90
71367;DHT22;60030;52.274;8.040;2023-05-07T11:19:53;21.20;99.90
71367;DHT22;60030;52.274;8.040;2023-05-07T11:22:37;21.30;99.90
71367;DHT22;60030;52.274;8.040;2023-05-07T11:25:19;21.60;99.90
71367;DHT22;60030;52.274;8.040;2023-05-07T11:27:54;21.60;99.90
71367;DHT22;60030;52.274;8.040;2023-05-07T11:30:24;22.10;99.90
71367;DHT22;60030;52.274;8.040;2023-05-07T11:32:52;22.40;99.90
71367;DHT22;60030;52.274;8.040;2023-05-07T11:35:23;22.30;99.90
71367;DHT22;60030;52.274;8.040;2023-05-07T11:37:58;22.20;99.90
71367;DHT22;60030;52.274;8.040;2023-05-07T11:40:27;22.30;99.90
71367;DHT22;60030;52.274;8.040;2023-05-07T11:42:55;22.40;99.90
71367;DHT22;60030;52.274;8.040;2023-05-07T11:45:23;22.30;99.90
71367;DHT22;60030;52.274;8.040;2023-05-07T11:47:52;22.50;99.90
71367;DHT22;60030;52.274;8.040;2023-05-07T11:50:21;22.60;99.90
71367;DHT22;60030;52.274;8.040;2023-05-07T11:52:50;22.90;99.90
71367;DHT22;60030;52.274;8.040;2023-05-07T11:55:19;22.70;99.90
71367;DHT22;60030;52.274;8.040;2023-05-07T11:57:47;22.60;99.90
71367;DHT22;60030;52.274;8.040;2023-05-07T12:00:16;22.90;99.90
71367;DHT22;60030;52.274;8.040;2023-05-07T12:02:45;22.60;99.90
71367;DHT22;60030;52.274;8.040;2023-05-07T12:05:12;22.50;99.90
71367;DHT22;60030;52.274;8.040;2023-05-07T12:07:43;22.30;99.90
71367;DHT22;60030;52.274;8.040;2023-05-07T12:10:11;22.50;99.90
71367;DHT22;60030;52.274;8.040;2023-05-07T12:12:39;22.50;99.90
71367;DHT22;60030;52.274;8.040;2023-05-07T12:15:08;23.00;99.90
71367;DHT22;60030;52.274;8.040;2023-05-07T12:17:37;23.20;99.90
71367;DHT22;60030;52.274;8.040;2023-05-07T12:20:06;23.00;99.90
71367;DHT22;60030;52.274;8.040;2023-05-07T12:22:33;23.40;99.90
71367;DHT22;60030;52.274;8.040;2023-05-07T12:25:02;23.60;99.90
71367;DHT22;60030;52.274;8.040;2023-05-07T12:27:30;23.70;99.90
71367;DHT22;60030;52.274;8.040;2023-05-07T12:29:58;23.90;99.50
71367;DHT22;60030;52.274;8.040;2023-05-07T12:32:25;24.00;99.90
71367;DHT22;60030;52.274;8.040;2023-05-07T12:34:53;24.30;98.80
71367;DHT22;60030;52.274;8.040;2023-05-07T12:37:23;24.50;98.20
71367;DHT22;60030;52.274;8.040;2023-05-07T12:40:05;24.70;98.20
71367;DHT22;60030;52.274;8.040;2023-05-07T12:42:35;25.00;96.70
71367;DHT22;60030;52.274;8.040;2023-05-07T12:45:08;25.20;95.50
71367;DHT22;60030;52.274;8.040;2023-05-07T12:47:36;25.20;94.70
71367;DHT22;60030;52.274;8.040;2023-05-07T12:50:06;25.80;93.10
71367;DHT22;60030;52.274;8.040;2023-05-07T12:52:34;26.80;90.70
71367;DHT22;60030;52.274;8.040;2023-05-07T12:55:07;27.70;86.70
71367;DHT22;60030;52.274;8.040;2023-05-07T12:57:38;28.00;83.30
71367;DHT22;60030;52.274;8.040;2023-05-07T13:00:07;28.10;80.60
71367;DHT22;60030;52.274;8.040;2023-05-07T13:02:38;28.10;78.10
71367;DHT22;60030;52.274;8.040;2023-05-07T13:05:07;28.00;78.50
71367;DHT22;60030;52.274;8.040;2023-05-07T13:07:35;27.50;78.10
71367;DHT22;60030;52.274;8.040;2023-05-07T13:10:03;27.60;77.80
71367;DHT22;60030;52.274;8.040;2023-05-07T13:12:32;27.90;76.60
71367;DHT22;60030;52.274;8.040;2023-05-07T13:14:59;27.60;75.60
71367;DHT22;60030;52.274;8.040;2023-05-07T13:17:26;28.00;76.10
71367;DHT22;60030;52.274;8.040;2023-05-07T13:19:57;28.40;74.90
71367;DHT22;60030;52.274;8.040;2023-05-07T13:22:24;28.70;74.50
71367;DHT22;60030;52.274;8.040;2023-05-07T13:24:53;28.60;73.40
71367;DHT22;60030;52.274;8.040;2023-05-07T13:27:21;28.50;72.30
71367;DHT22;60030;52.274;8.040;2023-05-07T13:29:49;27.90;73.10
71367;DHT22;60030;52.274;8.040;2023-05-07T13:32:18;28.20;72.80
71367;DHT22;60030;52.274;8.040;2023-05-07T13:34:45;27.90;73.00
71367;DHT22;60030;52.274;8.040;2023-05-07T13:37:13;28.50;71.00
71367;DHT22;60030;52.274;8.040;2023-05-07T13:39:40;29.10;70.30
71367;DHT22;60030;52.274;8.040;2023-05-07T13:42:08;29.10;69.10
71367;DHT22;60030;52.274;8.040;2023-05-07T13:44:35;29.40;68.80
71367;DHT22;60030;52.274;8.040;2023-05-07T13:47:04;29.40;69.10
71367;DHT22;60030;52.274;8.040;2023-05-07T13:49:32;28.80;68.80
71367;DHT22;60030;52.274;8.040;2023-05-07T13:51:59;28.00;70.40
71367;DHT22;60030;52.274;8.040;2023-05-07T13:54:26;28.40;72.10
71367;DHT22;60030;52.274;8.040;2023-05-07T13:56:54;28.10;70.30
71367;DHT22;60030;52.274;8.040;2023-05-07T13:59:21;27.70;71.90
71367;DHT22;60030;52.274;8.040;2023-05-07T14:01:49;28.10;72.80
71367;DHT22;60030;52.274;8.040;2023-05-07T14:04:18;28.00;71.60
71367;DHT22;60030;52.274;8.040;2023-05-07T14:06:46;28.40;70.10
71367;DHT22;60030;52.274;8.040;2023-05-07T14:09:13;28.70;69.00
71367;DHT22;60030;52.274;8.040;2023-05-07T14:11:41;28.50;69.10
71367;DHT22;60030;52.274;8.040;2023-05-07T14:14:09;27.80;71.80
71367;DHT22;60030;52.274;8.040;2023-05-07T14:16:37;28.20;69.80
71367;DHT22;60030;52.274;8.040;2023-05-07T14:19:06;28.20;70.10
71367;DHT22;60030;52.274;8.040;2023-05-07T14:21:37;28.00;69.90
71367;DHT22;60030;52.274;8.040;2023-05-07T14:24:06;28.30;70.20
71367;DHT22;60030;52.274;8.040;2023-05-07T14:26:35;27.90;69.70
71367;DHT22;60030;52.274;8.040;2023-05-07T14:29:02;27.60;71.00
71367;DHT22;60030;52.274;8.040;2023-05-07T14:31:30;26.40;73.80
71367;DHT22;60030;52.274;8.040;2023-05-07T14:33:57;26.50;74.10
71367;DHT22;60030;52.274;8.040;2023-05-07T14:36:25;26.50;74.00
71367;DHT22;60030;52.274;8.040;2023-05-07T14:38:55;25.80;74.80
71367;DHT22;60030;52.274;8.040;2023-05-07T14:41:27;25.60;76.90
71367;DHT22;60030;52.274;8.040;2023-05-07T14:43:54;25.60;77.10
71367;DHT22;60030;52.274;8.040;2023-05-07T14:46:22;25.60;77.60
71367;DHT22;60030;52.274;8.040;2023-05-07T14:48:50;25.60;77.80
71367;DHT22;60030;52.274;8.040;2023-05-07T14:51:19;25.50;78.20
71367;DHT22;60030;52.274;8.040;2023-05-07T14:53:47;25.00;78.70
71367;DHT22;60030;52.274;8.040;2023-05-07T14:56:16;25.00;79.90
71367;DHT22;60030;52.274;8.040;2023-05-07T14:58:45;24.60;80.50
71367;DHT22;60030;52.274;8.040;2023-05-07T15:01:13;24.80;80.80
71367;DHT22;60030;52.274;8.040;2023-05-07T15:03:41;24.90;80.40
71367;DHT22;60030;52.274;8.040;2023-05-07T15:06:08;25.10;80.20
71367;DHT22;60030;52.274;8.040;2023-05-07T15:08:36;25.10;80.00
71367;DHT22;60030;52.274;8.040;2023-05-07T15:11:03;24.80;80.30
71367;DHT22;60030;52.274;8.040;2023-05-07T15:13:32;25.00;80.70
71367;DHT22;60030;52.274;8.040;2023-05-07T15:15:59;24.70;81.70
71367;DHT22;60030;52.274;8.040;2023-05-07T15:18:27;24.60;81.60
71367;DHT22;60030;52.274;8.040;2023-05-07T15:20:55;24.10;83.00
71367;DHT22;60030;52.274;8.040;2023-05-07T15:23:23;23.90;84.10
71367;DHT22;60030;52.274;8.040;2023-05-07T15:25:52;24.00;84.80
71367;DHT22;60030;52.274;8.040;2023-05-07T15:28:19;24.10;84.20
71367;DHT22;60030;52.274;8.040;2023-05-07T15:30:50;23.90;84.40
71367;DHT22;60030;52.274;8.040;2023-05-07T15:33:18;23.50;85.70
71367;DHT22;60030;52.274;8.040;2023-05-07T15:35:45;23.80;85.50
71367;DHT22;60030;52.274;8.040;2023-05-07T15:38:13;23.60;86.30
71367;DHT22;60030;52.274;8.040;2023-05-07T15:40:42;23.90;86.20
71367;DHT22;60030;52.274;8.040;2023-05-07T15:43:10;23.70;86.00
71367;DHT22;60030;52.274;8.040;2023-05-07T15:45:39;23.80;86.10